Time;durP1;ratioP1;P1;durP2;ratioP2;P2;SDS_P1;SDS_P2;PMS_P1;PMS_P2;Temp;Humidity;BMP_temperature;BMP_pressure;BME280_temperature;BME280_humidity;BME280_pressure;Samples;Min_cycle;Max_cycle;Signal;HPM_P1;HPM_P2
2024/01/08 00:03:31;;;;;;;1.80;1.10;;;;;;;17.16;52.32;102855.81;10538040;28;20318;-55
2024/01/08 00:08:31;;;;;;;1.75;0.93;;;;;;;17.17;51.71;102845.94;10533052;28;20021;-56
2024/01/08 00:13:32;;;;;;;1.58;0.80;;;;;;;17.16;52.40;102855.81;10521605;28;20048;-56
2024/01/08 00:18:32;;;;;;;2.40;1.10;;;;;;;17.17;50.88;102859.34;10536819;28;20015;-57
2024/01/08 00:23:36;;;;;;;1.80;1.05;;;;;;;17.17;52.05;102868.19;10536646;28;20863;-56
2024/01/08 00:28:37;;;;;;;2.42;1.10;;;;;;;17.15;52.66;102867.59;10536431;28;20020;-56
2024/01/08 00:33:37;;;;;;;3.35;1.13;;;;;;;17.16;50.90;102861.19;10536466;28;20028;-56
2024/01/08 00:38:37;;;;;;;1.65;0.80;;;;;;;17.16;51.47;102855.81;10517497;28;20468;-54
2024/01/08 00:43:38;;;;;;;0.90;0.70;;;;;;;17.18;51.56;102855.59;10527785;28;20082;-56
2024/01/08 00:48:38;;;;;;;1.30;0.70;;;;;;;17.21;51.03;102860.50;10535816;28;20278;-57
2024/01/08 00:53:38;;;;;;;1.40;0.82;;;;;;;17.21;51.64;102865.84;10535783;28;20036;-56
2024/01/08 00:58:41;;;;;;;1.67;0.70;;;;;;;17.18;51.35;102859.09;10535465;28;20545;-56
2024/01/08 01:03:42;;;;;;;1.13;0.52;;;;;;;17.18;51.25;102864.47;10535551;28;20289;-54
2024/01/08 01:08:43;;;;;;;0.90;0.57;;;;;;;17.16;52.08;102866.53;10534772;28;20423;-56
2024/01/08 01:13:43;;;;;;;2.10;0.80;;;;;;;17.16;52.45;102869.22;10511224;28;20370;-56
2024/01/08 01:18:43;;;;;;;0.83;0.57;;;;;;;17.15;51.39;102872.13;10492633;28;20021;-57
2024/01/08 01:23:44;;;;;;;1.27;0.70;;;;;;;17.15;51.86;102872.94;10492847;28;20684;-56
2024/01/08 01:28:44;;;;;;;1.00;0.67;;;;;;;17.18;51.12;102877.88;10474266;28;20337;-53
2024/01/08 01:33:44;;;;;;;1.23;0.60;;;;;;;17.14;50.71;102879.38;10491787;28;20621;-56
2024/01/08 01:38:45;;;;;;;1.13;0.60;;;;;;;17.16;52.05;102881.81;10492142;28;20278;-56
2024/01/08 01:43:45;;;;;;;0.98;0.70;;;;;;;17.15;52.21;102889.03;10492372;28;20024;-57
2024/01/08 01:48:45;;;;;;;1.53;0.70;;;;;;;17.13;52.16;102891.13;10491833;28;20116;-56
2024/01/08 01:53:46;;;;;;;1.23;0.70;;;;;;;17.16;51.08;102895.22;10491811;28;20329;-56
2024/01/08 01:58:46;;;;;;;1.15;0.50;;;;;;;17.14;51.70;102892.75;10456541;28;20029;-56
2024/01/08 02:03:47;;;;;;;1.50;0.90;;;;;;;17.17;51.51;102895.00;10491502;28;20047;-55
2024/01/08 02:08:48;;;;;;;1.88;0.77;;;;;;;17.14;51.27;102898.13;10490901;28;20021;-56
2024/01/08 02:13:48;;;;;;;1.92;0.93;;;;;;;17.14;52.21;102892.75;10497524;28;20048;-56
2024/01/08 02:18:48;;;;;;;1.50;0.63;;;;;;;17.15;52.02;102893.59;10532846;28;20028;-55
2024/01/08 02:23:49;;;;;;;1.03;0.63;;;;;;;17.14;50.70;102903.50;10533158;28;20024;-56
2024/01/08 02:28:49;;;;;;;1.00;0.50;;;;;;;17.12;52.02;102905.59;10532583;28;20289;-55
2024/01/08 02:33:49;;;;;;;1.13;0.60;;;;;;;17.13;51.33;102912.59;10532948;28;20048;-56
2024/01/08 02:38:50;;;;;;;1.10;0.70;;;;;;;17.16;51.18;102905.94;10532270;28;20289;-56
2024/01/08 02:43:50;;;;;;;1.23;0.73;;;;;;;17.17;51.06;102900.38;10514822;28;20305;-56
2024/01/08 02:48:50;;;;;;;1.37;0.73;;;;;;;17.17;50.13;102902.22;10540565;28;20286;-55
2024/01/08 02:53:51;;;;;;;0.88;0.50;;;;;;;17.18;50.17;102906.53;10540989;28;20262;-56
2024/01/08 02:58:51;;;;;;;1.75;0.50;;;;;;;17.19;50.66;102903.63;10540178;28;20024;-56
2024/01/08 03:03:51;;;;;;;1.47;0.60;;;;;;;17.17;51.10;102908.41;10522098;28;20027;-56
2024/01/08 03:08:52;;;;;;;1.63;0.90;;;;;;;17.17;50.08;102915.63;10539375;28;20333;-56
2024/01/08 03:13:52;;;;;;;1.30;0.70;;;;;;;17.19;49.99;102914.34;10539774;28;20308;-56
2024/01/08 03:18:52;;;;;;;0.93;0.60;;;;;;;17.18;50.18;102919.94;10539315;28;20280;-57
2024/01/08 03:23:53;;;;;;;1.67;0.97;;;;;;;17.18;50.35;102928.81;10539580;28;20289;-55
2024/01/08 03:28:53;;;;;;;1.33;0.77;;;;;;;17.20;51.00;102912.47;10539106;28;20289;-56
2024/01/08 03:33:53;;;;;;;1.00;0.50;;;;;;;17.20;50.47;102915.97;10539604;28;20036;-56
2024/01/08 03:38:54;;;;;;;0.67;0.57;;;;;;;17.21;51.07;102909.56;10538697;28;21071;-56
2024/01/08 03:43:54;;;;;;;1.27;0.70;;;;;;;17.18;50.59;102909.22;10538987;28;20278;-56
2024/01/08 03:48:54;;;;;;;2.13;0.83;;;;;;;17.21;50.25;102919.47;10538205;28;20305;-56
2024/01/08 03:53:54;;;;;;;1.70;0.70;;;;;;;17.19;50.35;102909.00;10538476;28;20285;-56
2024/01/08 03:58:55;;;;;;;1.57;0.50;;;;;;;17.17;50.67;102902.22;10536936;28;20277;-55
2024/01/08 04:03:55;;;;;;;1.65;0.70;;;;;;;17.21;50.09;102906.88;10538113;28;20288;-55
2024/01/08 04:08:56;;;;;;;0.93;0.50;;;;;;;17.19;50.10;102906.31;10515902;28;20057;-56
2024/01/08 04:13:56;;;;;;;0.77;0.57;;;;;;;17.21;51.37;102908.75;10525381;28;20301;-56
2024/01/08 04:18:57;;;;;;;0.88;0.50;;;;;;;17.19;50.03;102913.53;10536450;28;20297;-56
2024/01/08 04:23:57;;;;;;;2.13;0.50;;;;;;;17.19;51.47;102916.22;10513177;28;20040;-55
2024/01/08 04:28:58;;;;;;;2.97;1.08;;;;;;;17.24;51.23;102908.28;10518665;28;20287;-55
2024/01/08 04:33:58;;;;;;;1.60;0.90;;;;;;;17.28;51.31;102912.13;10493686;28;20032;-57
2024/01/08 04:38:58;;;;;;;1.52;1.00;;;;;;;17.27;51.67;102912.34;10510423;28;20795;-55
2024/01/08 04:43:59;;;;;;;2.80;1.00;;;;;;;17.21;52.73;102906.88;10512950;28;20028;-55
2024/01/08 04:48:59;;;;;;;3.00;1.10;;;;;;;17.19;52.92;102908.19;10521423;28;20293;-52
2024/01/08 04:54:00;;;;;;;6.27;1.67;;;;;;;17.14;53.70;102908.03;10536003;28;20274;-54
2024/01/08 04:59:00;;;;;;;3.63;1.08;;;;;;;17.06;52.81;102916.44;10530523;28;20266;-55
2024/01/08 05:04:01;;;;;;;2.77;1.10;;;;;;;17.05;52.36;102909.41;10535702;28;20032;-55
2024/01/08 05:09:02;;;;;;;2.63;1.13;;;;;;;17.05;52.25;102914.78;10534941;28;20661;-55
2024/01/08 05:14:06;;;;;;;5.38;1.20;;;;;;;17.03;52.69;102912.34;10516968;28;20725;-53
2024/01/08 05:19:06;;;;;;;1.42;1.00;;;;;;;17.06;51.74;102909.22;10534727;28;20023;-53
2024/01/08 05:24:07;;;;;;;1.60;1.03;;;;;;;17.08;52.17;102909.78;10534965;28;20136;-54
2024/01/08 05:29:07;;;;;;;1.40;0.93;;;;;;;17.08;52.22;102904.44;10533856;28;20664;-56
2024/01/08 05:34:07;;;;;;;3.07;1.03;;;;;;;17.09;52.90;102900.69;10534300;28;20035;-54
2024/01/08 05:39:08;;;;;;;1.07;0.70;;;;;;;17.13;51.52;102896.50;10534065;28;20278;-53
2024/01/08 05:44:08;;;;;;;1.67;0.88;;;;;;;17.16;52.07;102897.88;10533890;28;20629;-51
2024/01/08 05:49:09;;;;;;;1.50;1.10;;;;;;;17.14;51.56;102897.31;10533806;28;20020;-49
2024/01/08 05:54:09;;;;;;;1.40;0.90;;;;;;;17.14;51.77;102892.75;10533536;28;20284;-54
2024/01/08 05:59:09;;;;;;;0.83;0.50;;;;;;;17.13;51.10;102898.38;10533436;28;20273;-54
2024/01/08 06:04:10;;;;;;;2.10;0.97;;;;;;;17.14;52.67;102897.31;10533084;28;20311;-55
2024/01/08 06:09:10;;;;;;;1.58;0.90;;;;;;;17.23;53.13;102891.38;10527731;28;20344;-54
2024/01/08 06:14:11;;;;;;;5.93;1.42;;;;;;;17.21;53.24;102895.34;10532775;28;20106;-54
2024/01/08 06:19:11;;;;;;;4.40;0.87;;;;;;;17.24;52.90;102901.06;10532437;28;20102;-54
2024/01/08 06:24:11;;;;;;;6.57;1.10;;;;;;;17.20;54.17;102901.75;10514472;28;20314;-54
2024/01/08 06:29:12;;;;;;;11.97;1.50;;;;;;;17.14;52.39;102900.00;10532912;28;20134;-54
2024/01/08 06:34:13;;;;;;;5.05;2.15;;;;;;;17.13;52.57;102903.72;10532149;28;20278;-51
2024/01/08 06:39:13;;;;;;;10.60;2.20;;;;;;;17.14;52.82;102903.50;10514289;28;20111;-54
2024/01/08 06:44:13;;;;;;;7.00;2.17;;;;;;;17.15;52.52;102912.34;10532348;28;20349;-55
2024/01/08 06:49:14;;;;;;;6.47;1.50;;;;;;;17.14;52.25;102903.50;10537046;28;20384;-56
2024/01/08 06:54:14;;;;;;;5.43;1.17;;;;;;;17.05;53.44;102902.22;10526976;28;20066;-52
2024/01/08 06:59:15;;;;;;;11.18;2.47;;;;;;;17.10;53.30;102912.25;10529383;28;20320;-56
2024/01/08 07:04:15;;;;;;;14.43;2.40;;;;;;;17.09;53.76;102914.09;10531604;28;20470;-56
2024/01/08 07:09:16;;;;;;;8.50;2.13;;;;;;;16.97;54.16;102915.13;10523638;28;20024;-54
2024/01/08 07:14:16;;;;;;;13.07;1.53;;;;;;;16.92;54.56;102916.63;10502837;28;20291;-56
2024/01/08 07:19:17;;;;;;;7.47;2.37;;;;;;;16.93;54.10;102930.88;10490062;28;20280;-55
2024/01/08 07:24:17;;;;;;;13.10;2.08;;;;;;;17.00;52.51;102922.72;10485805;28;20294;-56
2024/01/08 07:29:17;;;;;;;10.07;2.37;;;;;;;16.99;54.02;102929.13;10483262;28;20121;-57
2024/01/08 07:34:19;;;;;;;13.63;2.60;;;;;;;16.98;52.31;102928.31;10472724;28;20928;-56
2024/01/08 07:39:19;;;;;;;14.93;2.63;;;;;;;16.94;53.08;102936.00;10467610;28;20928;-53
2024/01/08 07:44:20;;;;;;;5.78;2.30;;;;;;;16.95;53.76;102934.13;10475546;28;20016;-55
2024/01/08 07:49:20;;;;;;;5.80;1.90;;;;;;;16.95;53.48;102953.72;10496448;28;20488;-53
2024/01/08 07:54:20;;;;;;;4.70;1.73;;;;;;;16.90;53.43;102944.72;10494716;28;20622;-52
2024/01/08 07:59:21;;;;;;;13.07;3.03;;;;;;;16.85;53.19;102952.63;10478274;28;20286;-54
2024/01/08 08:04:21;;;;;;;8.50;2.47;;;;;;;16.94;54.04;102959.31;10492383;28;20290;-56
2024/01/08 08:09:21;;;;;;;6.20;1.47;;;;;;;16.87;52.52;102958.56;10495537;28;20290;-54
2024/01/08 08:14:22;;;;;;;7.10;1.67;;;;;;;16.81;53.69;102954.97;10516613;28;20302;-53
2024/01/08 08:19:22;;;;;;;7.93;1.35;;;;;;;16.81;53.02;102956.78;10529887;28;20278;-53
2024/01/08 08:24:23;;;;;;;12.87;1.97;;;;;;;16.81;52.92;102970.19;10518867;28;20398;-53
2024/01/08 08:29:23;;;;;;;9.23;2.33;;;;;;;16.79;52.89;102969.59;10526805;28;20378;-54
2024/01/08 08:34:23;;;;;;;6.90;1.83;;;;;;;16.78;52.62;102974.16;10528046;28;20149;-54
2024/01/08 08:39:24;;;;;;;6.90;1.65;;;;;;;16.79;52.76;102977.63;10536270;28;20711;-54
2024/01/08 08:44:24;;;;;;;10.60;2.83;;;;;;;16.77;53.18;102991.28;10515387;28;20402;-53
2024/01/08 08:49:25;;;;;;;12.23;2.55;;;;;;;16.82;54.42;102982.56;10523648;28;20032;-52
2024/01/08 08:54:25;;;;;;;13.77;2.83;;;;;;;16.82;56.86;102994.09;10535246;28;20024;-50
2024/01/08 08:59:26;;;;;;;10.48;3.15;;;;;;;16.86;58.96;102994.44;10530461;28;20375;-53
2024/01/08 09:04:26;;;;;;;6.38;1.77;;;;;;;16.84;56.81;103001.91;10517261;28;20028;-54
2024/01/08 09:09:26;;;;;;;6.80;2.53;;;;;;;16.86;55.34;102999.81;10534923;28;20123;-54
2024/01/08 09:14:27;;;;;;;6.40;1.67;;;;;;;16.87;54.06;102998.75;10532756;28;20340;-54
2024/01/08 09:19:27;;;;;;;4.68;1.40;;;;;;;16.85;54.68;102999.00;10516748;28;20101;-51
2024/01/08 09:24:28;;;;;;;12.00;2.42;;;;;;;16.86;55.28;103007.84;10534385;28;20475;-53
2024/01/08 09:29:28;;;;;;;16.13;2.07;;;;;;;16.81;55.32;103007.69;10533258;28;20042;-54
2024/01/08 09:34:28;;;;;;;10.47;2.03;;;;;;;16.81;54.70;103019.25;10534027;28;20273;-53
2024/01/08 09:39:29;;;;;;;10.20;2.53;;;;;;;16.79;55.00;103029.38;10516033;28;20266;-52
2024/01/08 09:44:31;;;;;;;4.80;1.30;;;;;;;16.80;55.58;103022.97;10526014;28;20281;-54
2024/01/08 09:49:32;;;;;;;7.25;1.77;;;;;;;16.78;54.80;103027.72;10533855;28;20286;-55
2024/01/08 09:54:33;;;;;;;4.18;1.58;;;;;;;16.80;54.49;103028.31;10532359;28;20073;-55
2024/01/08 09:59:33;;;;;;;4.97;1.80;;;;;;;16.85;54.71;103025.78;10508136;28;20493;-55
2024/01/08 10:04:34;;;;;;;4.78;1.33;;;;;;;16.82;55.64;103028.13;10505294;28;20114;-51
2024/01/08 10:09:34;;;;;;;4.33;1.40;;;;;;;16.81;54.00;103027.31;10501803;28;20096;-52
2024/01/08 10:14:35;;;;;;;12.55;1.70;;;;;;;16.69;55.65;103022.91;10514238;28;20342;-54
2024/01/08 10:19:35;;;;;;;3.35;1.63;;;;;;;16.74;54.34;103017.72;10527106;28;20439;-54
2024/01/08 10:24:38;;;;;;;13.95;3.92;;;;;;;16.72;54.12;103017.94;10532389;28;20127;-54
2024/01/08 10:29:39;;;;;;;12.40;1.95;;;;;;;16.74;54.51;103018.53;10512557;28;20117;-54
2024/01/08 10:34:41;;;;;;;4.65;1.80;;;;;;;16.70;54.15;103013.84;10532319;28;20028;-55
2024/01/08 10:39:42;;;;;;;5.50;1.80;;;;;;;16.71;52.54;103020.84;10514534;28;20348;-53
2024/01/08 10:44:43;;;;;;;2.80;1.15;;;;;;;16.69;52.85;103013.00;10511269;28;20032;-55
2024/01/08 10:49:48;;;;;;;5.47;2.13;;;;;;;16.71;52.66;103002.09;10513971;28;20028;-52
2024/01/08 10:54:55;;;;;;;5.18;1.40;;;;;;;16.75;53.49;102992.56;10532171;28;20117;-54
2024/01/08 10:59:56;;;;;;;1.55;0.95;;;;;;;16.80;54.02;102992.66;10529196;28;20058;-53
2024/01/08 11:05:00;;;;;;;2.75;1.33;;;;;;;16.78;53.75;102984.03;10531813;28;20098;-52
2024/01/08 11:10:03;;;;;;;2.17;1.55;;;;;;;16.69;53.01;102982.72;10527903;28;20108;-54
2024/01/08 11:15:04;;;;;;;2.75;1.13;;;;;;;16.79;57.67;102981.13;10536799;28;20079;-53
2024/01/08 11:20:45;;;;;;;3.35;1.38;;;;;;;16.84;54.87;102978.59;10532874;28;20030;-54
2024/01/08 11:25:49;;;;;;;;;;;;;;;16.86;54.90;102981.06;10512297;28;20568;-52
2024/01/08 11:31:03;;;;;;;4.75;1.50;;;;;;;16.87;54.71;102972.78;10539222;28;19922;-52
2024/01/08 11:36:18;;;;;;;3.53;1.63;;;;;;;16.92;56.33;102969.41;10517830;28;20570;-52
2024/01/08 11:41:18;;;;;;;8.88;1.55;;;;;;;17.09;55.29;102967.72;10538848;28;20077;-54
2024/01/08 11:46:18;;;;;;;4.07;1.17;;;;;;;17.15;54.26;102969.47;10538229;28;20078;-53
2024/01/08 11:51:20;;;;;;;9.57;1.37;;;;;;;16.98;55.71;102965.00;10512034;28;20059;-53
2024/01/08 11:56:21;;;;;;;13.65;1.73;;;;;;;16.93;54.68;102957.66;10527149;28;20274;-52
2024/01/08 12:01:21;;;;;;;6.03;1.48;;;;;;;16.91;55.20;102968.59;10538039;28;20505;-53
2024/01/08 12:06:22;;;;;;;5.80;1.50;;;;;;;16.90;54.30;102969.63;10530308;28;20034;-52
2024/01/08 12:11:25;;;;;;;7.33;1.57;;;;;;;16.92;53.75;102964.03;10493826;28;20048;-54
2024/01/08 12:16:25;;;;;;;3.55;1.45;;;;;;;16.88;54.81;102957.53;10539829;28;20281;-53
2024/01/08 12:21:26;;;;;;;6.63;1.40;;;;;;;16.88;55.18;102957.53;10509189;28;20021;-53
2024/01/08 12:26:27;;;;;;;10.98;2.00;;;;;;;16.74;55.74;102956.91;10517155;28;20270;-51
2024/01/08 12:31:32;;;;;;;12.02;3.78;;;;;;;16.67;54.59;102948.09;10526028;28;20040;-47
2024/01/08 12:36:32;;;;;;;7.88;1.30;;;;;;;16.60;55.56;102945.53;10528583;28;20110;-48
2024/01/08 12:41:33;;;;;;;13.73;1.93;;;;;;;16.61;56.59;102957.88;10535245;28;20016;-51
2024/01/08 12:46:33;;;;;;;16.80;2.00;;;;;;;16.59;57.19;102948.44;10532884;28;20278;-55
2024/01/08 12:51:33;;;;;;;7.47;2.20;;;;;;;16.50;55.05;102947.13;10524352;28;20792;-54
2024/01/08 12:56:34;;;;;;;8.40;1.50;;;;;;;16.43;54.95;102938.34;10518827;28;20276;-53
2024/01/08 13:01:35;;;;;;;8.37;2.10;;;;;;;16.41;56.46;102941.25;10502603;28;20900;-50
2024/01/08 13:06:35;;;;;;;7.10;2.08;;;;;;;16.45;55.40;102944.28;10507636;28;20275;-52
2024/01/08 13:11:36;;;;;;;9.60;1.97;;;;;;;16.46;55.85;102938.72;10522888;28;20031;-53
2024/01/08 13:16:41;;;;;;;8.13;1.40;;;;;;;16.46;55.35;102937.91;10515121;28;20262;-51
2024/01/08 13:21:45;;;;;;;5.20;1.20;;;;;;;16.49;56.23;102942.81;10515266;28;20034;-53
2024/01/08 13:26:45;;;;;;;15.23;1.90;;;;;;;16.52;55.31;102942.34;10510732;28;20027;-53
2024/01/08 13:31:46;;;;;;;6.50;1.10;;;;;;;16.50;55.51;102939.91;10529665;28;20031;-51
2024/01/08 13:36:46;;;;;;;5.60;1.90;;;;;;;16.53;55.65;102946.66;10506148;28;20021;-49
2024/01/08 13:41:47;;;;;;;3.78;1.60;;;;;;;16.52;55.73;102942.34;10524590;28;20076;-51
2024/01/08 13:46:47;;;;;;;5.28;1.73;;;;;;;16.57;54.51;102951.31;10529953;28;20089;-48
2024/01/08 13:51:48;;;;;;;7.15;1.90;;;;;;;16.60;54.36;102956.25;10526076;28;20422;-52
2024/01/08 13:56:48;;;;;;;7.80;1.40;;;;;;;16.59;54.80;102951.94;10515616;28;20111;-52
2024/01/08 14:01:48;;;;;;;5.17;1.33;;;;;;;16.59;55.08;102948.44;10512935;28;20027;-51
2024/01/08 14:06:49;;;;;;;6.67;1.87;;;;;;;16.55;55.00;102950.75;10487343;28;20277;-52
2024/01/08 14:11:49;;;;;;;6.67;1.47;;;;;;;16.59;55.80;102967.19;10504015;28;20909;-50
2024/01/08 14:16:49;;;;;;;5.67;1.30;;;;;;;16.63;56.24;102963.81;10494602;28;20354;-52
2024/01/08 14:21:51;;;;;;;10.07;1.70;;;;;;;16.62;54.99;102959.50;10532887;28;20294;-53
2024/01/08 14:26:51;;;;;;;4.05;1.30;;;;;;;16.61;56.21;102965.91;10517287;28;20032;-50
2024/01/08 14:31:52;;;;;;;4.87;1.60;;;;;;;16.61;54.55;102970.47;10532389;28;20103;-51
2024/01/08 14:36:52;;;;;;;3.30;1.25;;;;;;;16.60;54.55;102974.19;10531627;28;20735;-51
2024/01/08 14:41:52;;;;;;;6.22;1.27;;;;;;;16.66;55.44;102974.06;10532710;28;20034;-52
2024/01/08 14:46:52;;;;;;;2.73;1.27;;;;;;;16.70;57.07;102990.56;10521814;28;20048;-52
2024/01/08 14:51:53;;;;;;;2.27;1.10;;;;;;;16.70;57.06;102989.75;10533544;28;20306;-52
2024/01/08 14:56:53;;;;;;;3.07;1.00;;;;;;;16.67;55.51;102994.50;10534052;28;20282;-48
2024/01/08 15:01:54;;;;;;;3.95;0.90;;;;;;;16.64;56.24;102989.56;10536154;28;20283;-52
2024/01/08 15:06:57;;;;;;;7.47;1.45;;;;;;;16.59;56.19;102989.44;10539520;28;20028;-53
2024/01/08 15:11:57;;;;;;;15.88;2.28;;;;;;;16.62;56.40;102993.50;10539332;28;20694;-48
2024/01/08 15:16:58;;;;;;;18.77;2.63;;;;;;;16.61;55.19;102999.91;10536042;28;20051;-51
2024/01/08 15:21:58;;;;;;;26.88;4.00;;;;;;;16.58;55.00;102993.16;10537752;28;20058;-53
2024/01/08 15:26:58;;;;;;;24.92;4.50;;;;;;;16.70;55.01;102993.25;10538718;28;20055;-53
2024/01/08 15:31:59;;;;;;;27.37;4.13;;;;;;;16.75;54.32;103006.75;10538789;28;20039;-51
2024/01/08 15:37:00;;;;;;;40.42;5.95;;;;;;;16.67;56.17;103010.56;10524414;28;20391;-53
2024/01/08 15:42:00;;;;;;;17.88;2.78;;;;;;;16.72;54.82;103009.09;10523198;28;20099;-54
2024/01/08 15:47:01;;;;;;;16.37;3.20;;;;;;;16.85;54.04;103022.28;10520555;28;20024;-49
2024/01/08 15:52:01;;;;;;;21.93;3.90;;;;;;;16.76;55.14;103027.16;10532425;28;20749;-51
2024/01/08 15:57:02;;;;;;;32.55;4.22;;;;;;;16.70;56.75;103037.97;10536761;28;20282;-52
2024/01/08 16:02:02;;;;;;;18.45;2.78;;;;;;;16.72;56.42;103039.38;10533297;28;20166;-53
2024/01/08 16:07:03;;;;;;;25.65;3.92;;;;;;;16.66;52.91;103040.22;10521285;28;20052;-53
2024/01/08 16:12:03;;;;;;;10.60;2.80;;;;;;;16.59;53.44;103048.34;10519888;28;20182;-51
2024/01/08 16:17:04;;;;;;;15.93;3.45;;;;;;;16.70;53.10;103046.00;10520416;28;20107;-49
2024/01/08 16:22:04;;;;;;;21.30;4.77;;;;;;;16.79;52.09;103049.97;10520449;28;20046;-49
2024/01/08 16:27:04;;;;;;;16.17;3.63;;;;;;;16.95;51.14;103050.19;10519434;28;20282;-50
2024/01/08 16:32:05;;;;;;;13.90;3.07;;;;;;;16.95;51.34;103058.22;10519751;28;20032;-52
2024/01/08 16:37:05;;;;;;;15.50;3.55;;;;;;;17.13;56.69;103069.94;10527529;28;20730;-51
2024/01/08 16:42:06;;;;;;;19.57;3.47;;;;;;;17.31;56.05;103071.75;10523794;28;20008;-51
2024/01/08 16:47:06;;;;;;;10.70;3.37;;;;;;;17.37;57.72;103062.75;10528311;28;20290;-48
2024/01/08 16:52:07;;;;;;;19.23;3.58;;;;;;;17.35;56.62;103062.19;10535729;28;20290;-53
2024/01/08 16:57:07;;;;;;;12.20;3.70;;;;;;;17.51;53.87;103066.88;10536123;28;20170;-49
2024/01/08 17:02:08;;;;;;;14.63;3.97;;;;;;;17.32;54.98;103070.69;10525595;28;20031;-53
2024/01/08 17:07:09;;;;;;;9.00;2.92;;;;;;;17.23;55.04;103072.88;10525179;28;20297;-55
2024/01/08 17:12:10;;;;;;;15.67;3.23;;;;;;;17.09;54.74;103074.13;10509316;28;20040;-56
2024/01/08 17:17:12;;;;;;;12.48;2.70;;;;;;;17.13;54.81;103075.28;10483274;28;20768;-54
2024/01/08 17:22:13;;;;;;;10.60;2.50;;;;;;;17.06;54.25;103083.44;10523706;28;20511;-51
2024/01/08 17:27:13;;;;;;;11.20;2.67;;;;;;;17.11;53.92;103090.78;10501144;28;20028;-54
2024/01/08 17:32:14;;;;;;;17.70;3.25;;;;;;;17.09;54.36;103091.03;10507781;28;20367;-55
2024/01/08 17:37:14;;;;;;;12.35;3.05;;;;;;;17.11;54.50;103088.91;10486701;28;20032;-55
2024/01/08 17:42:14;;;;;;;12.30;3.43;;;;;;;17.16;54.65;103096.28;10517231;28;20107;-56
2024/01/08 17:47:15;;;;;;;9.20;2.90;;;;;;;17.15;53.79;103111.53;10530316;28;20336;-57
2024/01/08 17:52:15;;;;;;;12.93;3.10;;;;;;;17.22;52.73;103098.88;10530097;28;20809;-56
2024/01/08 17:57:15;;;;;;;13.70;3.40;;;;;;;17.17;54.20;103111.34;10523770;28;20316;-56
2024/01/08 18:02:16;;;;;;;10.97;2.90;;;;;;;17.18;53.59;103110.28;10533705;28;20676;-56
2024/01/08 18:07:17;;;;;;;16.77;3.00;;;;;;;17.17;53.60;103114.03;10532472;28;20298;-56
2024/01/08 18:12:17;;;;;;;14.43;3.30;;;;;;;17.20;54.57;103118.91;10532286;28;20294;-57
2024/01/08 18:17:18;;;;;;;10.32;2.20;;;;;;;17.18;54.95;103115.66;10532460;28;20035;-58
2024/01/08 18:22:18;;;;;;;11.50;2.80;;;;;;;17.11;53.79;103128.31;10533194;28;20024;-54
2024/01/08 18:27:18;;;;;;;9.20;2.25;;;;;;;17.01;54.36;103136.06;10531312;28;20035;-56
2024/01/08 18:32:19;;;;;;;13.57;2.70;;;;;;;16.94;53.36;103138.84;10519520;28;20032;-57
2024/01/08 18:37:19;;;;;;;12.50;4.00;;;;;;;16.87;52.92;103133.56;10533337;28;20028;-57
2024/01/08 18:42:19;;;;;;;11.18;3.53;;;;;;;16.85;53.86;103140.19;10509429;28;20313;-58
2024/01/08 18:47:20;;;;;;;12.27;2.50;;;;;;;16.86;52.75;103144.50;10533134;28;20028;-57
2024/01/08 18:52:20;;;;;;;12.75;2.85;;;;;;;16.87;53.17;103143.47;10522414;28;20024;-58
2024/01/08 18:57:21;;;;;;;7.05;1.88;;;;;;;16.90;53.26;103145.69;10532770;28;20023;-56
2024/01/08 19:02:21;;;;;;;8.35;2.33;;;;;;;16.91;51.73;103150.00;10532400;28;20027;-57
2024/01/08 19:07:22;;;;;;;6.70;1.87;;;;;;;16.92;51.67;103157.81;10532652;28;20028;-57
2024/01/08 19:12:22;;;;;;;9.73;1.90;;;;;;;16.94;52.04;103153.06;10531520;28;20306;-57
2024/01/08 19:17:23;;;;;;;6.43;2.55;;;;;;;16.95;52.35;103154.69;10532138;28;20049;-58
2024/01/08 19:22:23;;;;;;;6.80;2.07;;;;;;;16.95;51.26;103149.34;10516491;28;20051;-56
2024/01/08 19:27:24;;;;;;;6.97;1.73;;;;;;;16.99;51.50;103152.38;10516559;28;20839;-56
2024/01/08 19:32:24;;;;;;;6.30;2.25;;;;;;;17.08;51.51;103152.91;10519701;28;20586;-58
2024/01/08 19:37:25;;;;;;;14.10;2.60;;;;;;;17.17;52.02;103164.97;10539507;28;20070;-58
2024/01/08 19:42:25;;;;;;;7.65;2.25;;;;;;;17.16;50.44;103158.75;10538694;28;20274;-58
2024/01/08 19:47:27;;;;;;;5.57;1.52;;;;;;;17.16;51.78;103152.56;10539115;28;20103;-58
2024/01/08 19:52:27;;;;;;;6.20;1.92;;;;;;;17.23;51.22;103158.66;10539029;28;20360;-60
2024/01/08 19:57:28;;;;;;;5.00;1.83;;;;;;;17.24;51.05;103152.25;10539009;28;20047;-59
2024/01/08 20:02:28;;;;;;;11.52;3.38;;;;;;;17.21;51.77;103156.22;10538456;28;20277;-54
2024/01/08 20:07:29;;;;;;;5.10;1.90;;;;;;;17.19;51.11;103154.81;10519722;28;20062;-53
2024/01/08 20:12:29;;;;;;;5.20;1.95;;;;;;;17.21;51.31;103153.53;10507802;28;20298;-55
2024/01/08 20:17:29;;;;;;;7.05;2.45;;;;;;;17.15;52.39;103151.75;10512247;28;20020;-54
2024/01/08 20:22:30;;;;;;;5.57;1.85;;;;;;;17.10;52.21;103148.94;10509295;28;20636;-55
2024/01/08 20:27:31;;;;;;;4.90;1.57;;;;;;;17.08;52.60;103155.59;10512919;28;20020;-55
2024/01/08 20:32:31;;;;;;;3.95;1.92;;;;;;;17.12;52.71;103159.44;10531250;28;20282;-54
2024/01/08 20:37:31;;;;;;;7.60;2.30;;;;;;;17.13;51.51;103163.75;10536973;28;20024;-56
2024/01/08 20:42:32;;;;;;;4.35;1.70;;;;;;;17.13;51.25;103166.44;10535812;28;20305;-57
2024/01/08 20:47:32;;;;;;;4.83;1.40;;;;;;;17.18;51.90;103161.22;10537094;28;20035;-57
2024/01/08 20:52:34;;;;;;;3.40;1.37;;;;;;;17.15;51.66;103165.16;10536044;28;20294;-55
2024/01/08 20:57:34;;;;;;;3.17;1.42;;;;;;;17.18;50.97;103163.91;10535949;28;20278;-56
2024/01/08 21:02:35;;;;;;;2.53;1.40;;;;;;;17.21;50.49;103148.19;10509386;28;20031;-56
2024/01/08 21:07:35;;;;;;;2.83;1.40;;;;;;;17.24;51.42;103152.25;10512711;28;20281;-56
2024/01/08 21:12:36;;;;;;;3.60;1.53;;;;;;;17.22;51.05;103149.81;10497020;28;20293;-57
2024/01/08 21:17:36;;;;;;;3.85;1.33;;;;;;;17.21;51.25;103148.19;10521785;28;20278;-57
2024/01/08 21:22:37;;;;;;;4.32;1.65;;;;;;;17.20;51.04;103154.59;10534254;28;20024;-55
2024/01/08 21:27:40;;;;;;;2.77;2.07;;;;;;;17.18;50.23;103143.28;10531094;28;20051;-57
2024/01/08 21:32:40;;;;;;;3.25;1.17;;;;;;;17.24;50.71;103146.91;10529922;28;20285;-57
2024/01/08 21:37:40;;;;;;;4.53;1.40;;;;;;;17.21;51.27;103160.75;10534676;28;20029;-57
2024/01/08 21:42:41;;;;;;;7.15;1.65;;;;;;;17.21;49.76;103166.13;10534585;28;20520;-55
2024/01/08 21:47:41;;;;;;;1.77;1.00;;;;;;;17.23;50.86;103162.16;10534809;28;20032;-54
2024/01/08 21:52:41;;;;;;;2.40;1.33;;;;;;;17.22;51.58;103167.75;10533117;28;20360;-55
2024/01/08 21:57:42;;;;;;;2.63;1.20;;;;;;;17.23;50.81;103169.41;10534467;28;20331;-54
2024/01/08 22:02:42;;;;;;;7.22;1.23;;;;;;;17.24;51.01;103176.41;10533653;28;20347;-56
2024/01/08 22:07:42;;;;;;;1.90;1.00;;;;;;;17.24;51.17;103182.56;10533778;28;20032;-57
2024/01/08 22:12:43;;;;;;;2.22;1.33;;;;;;;17.23;51.51;103183.63;10513149;28;20048;-57
2024/01/08 22:17:43;;;;;;;2.40;1.10;;;;;;;17.25;50.46;103188.75;10533506;28;20043;-56
2024/01/08 22:22:43;;;;;;;4.43;1.50;;;;;;;17.21;50.44;103193.75;10533024;28;20381;-57
2024/01/08 22:27:44;;;;;;;2.20;1.30;;;;;;;17.22;51.48;103202.63;10533500;28;20353;-56
2024/01/08 22:32:44;;;;;;;2.67;1.50;;;;;;;17.27;51.30;103194.69;10533075;28;20024;-58
2024/01/08 22:37:44;;;;;;;2.53;1.17;;;;;;;17.24;50.30;103195.16;10533289;28;20024;-56
2024/01/08 22:42:45;;;;;;;3.57;1.33;;;;;;;17.22;49.98;103202.63;10532784;28;20347;-56
2024/01/08 22:47:45;;;;;;;1.33;0.88;;;;;;;17.17;51.04;103200.63;10533137;28;20983;-56
2024/01/08 22:52:45;;;;;;;2.23;1.13;;;;;;;17.21;51.14;103207.16;10532752;28;20363;-56
2024/01/08 22:57:46;;;;;;;1.70;1.00;;;;;;;17.23;50.61;103198.88;10532925;28;20327;-55